createdAt,value
2023-05-25T00:02:19.041Z,6.72
2023-05-25T00:04:55.600Z,11.32
2023-05-25T00:07:23.056Z,8.70
2023-05-25T00:09:56.500Z,8.50
2023-05-25T00:12:23.960Z,9.85
2023-05-25T00:14:57.605Z,11.13
2023-05-25T00:17:25.023Z,12.40
2023-05-25T00:19:59.630Z,10.13
2023-05-25T00:22:29.470Z,12.32
2023-05-25T00:25:03.468Z,9.55
2023-05-25T00:27:31.277Z,10.00
2023-05-25T00:29:59.201Z,8.88
2023-05-25T00:32:33.532Z,9.60
2023-05-25T00:35:09.724Z,8.85
2023-05-25T00:37:43.305Z,8.02
2023-05-25T00:40:21.640Z,10.43
2023-05-25T00:42:58.386Z,11.05
2023-05-25T00:45:25.786Z,9.15
2023-05-25T00:48:01.450Z,10.57
2023-05-25T00:50:43.218Z,8.73
2023-05-25T00:53:18.424Z,9.95
2023-05-25T00:56:09.367Z,11.68
2023-05-25T00:58:46.546Z,7.88
2023-05-25T01:01:17.476Z,9.93
2023-05-25T01:04:02.454Z,13.93
2023-05-25T01:06:33.756Z,13.55
2023-05-25T01:09:12.897Z,11.45
2023-05-25T01:11:50.353Z,9.52
2023-05-25T01:14:28.589Z,8.82
2023-05-25T01:16:56.869Z,9.57
2023-05-25T01:19:30.993Z,8.73
2023-05-25T01:22:25.054Z,14.53
2023-05-25T01:25:03.851Z,9.63
2023-05-25T01:27:46.721Z,8.97
2023-05-25T01:30:23.716Z,8.25
2023-05-25T01:32:51.560Z,9.53
2023-05-25T01:35:32.645Z,9.00
2023-05-25T01:38:06.531Z,8.27
2023-05-25T01:40:46.581Z,10.47
2023-05-25T01:43:20.534Z,7.82
2023-05-25T01:45:48.385Z,8.60
2023-05-25T01:48:33.553Z,10.27
2023-05-25T01:51:23.587Z,9.33
2023-05-25T01:53:58.969Z,7.85
2023-05-25T01:56:39.963Z,9.05
2023-05-25T01:59:15.810Z,6.10
2023-05-25T02:01:53.824Z,9.37
2023-05-25T02:04:24.769Z,10.03
2023-05-25T02:07:06.525Z,7.97
2023-05-25T02:09:40.552Z,9.20
2023-05-25T02:12:14.640Z,9.20
2023-05-25T02:14:55.410Z,10.02
2023-05-25T02:17:34.709Z,8.27
2023-05-25T02:20:08.710Z,8.77
2023-05-25T02:22:44.539Z,7.50
2023-05-25T02:25:12.164Z,10.00
2023-05-25T02:27:48.537Z,7.40
2023-05-25T02:30:16.153Z,7.93
2023-05-25T02:32:50.518Z,7.83
2023-05-25T02:35:18.202Z,9.53
2023-05-25T02:37:52.498Z,8.37
2023-05-25T02:40:32.453Z,8.83
2023-05-25T02:42:59.565Z,10.57
2023-05-25T02:45:33.758Z,8.73
2023-05-25T02:48:01.198Z,11.20
2023-05-25T02:50:38.235Z,10.63
2023-05-25T02:53:08.794Z,11.90
2023-05-25T02:55:42.786Z,13.25
2023-05-25T02:58:15.335Z,10.52
2023-05-25T03:00:49.600Z,10.33
2023-05-25T03:03:25.938Z,9.88
2023-05-25T03:05:56.394Z,10.15
2023-05-25T03:08:33.172Z,12.35
2023-05-25T03:11:07.032Z,8.65
2023-05-25T03:13:41.989Z,12.75
2023-05-25T03:16:12.301Z,10.55
2023-05-25T03:18:48.587Z,10.60
2023-05-25T03:21:18.618Z,8.93
2023-05-25T03:23:56.982Z,10.60
2023-05-25T03:26:26.210Z,9.13
2023-05-25T03:28:59.583Z,10.27
2023-05-25T03:31:33.725Z,14.63
2023-05-25T03:34:10.574Z,10.32
2023-05-25T03:36:45.629Z,10.57
2023-05-25T03:39:26.514Z,9.93
2023-05-25T03:41:57.206Z,9.10
2023-05-25T03:44:30.651Z,9.60
2023-05-25T03:46:57.918Z,8.18
2023-05-25T03:49:39.253Z,8.25
2023-05-25T03:52:13.485Z,8.60
2023-05-25T03:54:43.382Z,10.40
2023-05-25T03:57:22.400Z,12.55
2023-05-25T03:59:52.241Z,11.57
2023-05-25T04:02:25.700Z,15.18
2023-05-25T04:04:54.037Z,12.70
2023-05-25T04:07:35.895Z,12.57
2023-05-25T04:10:06.029Z,9.52
2023-05-25T04:12:40.607Z,11.70
2023-05-25T04:15:16.738Z,11.48
2023-05-25T04:17:51.590Z,14.27
2023-05-25T04:20:22.409Z,12.40
2023-05-25T04:22:56.673Z,12.07
2023-05-25T04:25:29.367Z,12.20
2023-05-25T04:28:05.106Z,15.35
2023-05-25T04:30:35.028Z,11.70
2023-05-25T04:33:03.252Z,11.82
2023-05-25T04:35:38.734Z,13.57
2023-05-25T04:38:27.745Z,12.63
2023-05-25T04:41:11.409Z,14.35
2023-05-25T04:43:40.415Z,12.18
2023-05-25T04:46:20.716Z,12.55
2023-05-25T04:48:48.587Z,11.93
2023-05-25T04:51:22.629Z,11.43
2023-05-25T04:53:50.468Z,13.25
2023-05-25T04:56:24.636Z,13.40
2023-05-25T04:58:52.959Z,12.43
2023-05-25T05:01:35.849Z,14.48
2023-05-25T05:04:03.214Z,13.73
2023-05-25T05:06:44.229Z,14.63
2023-05-25T05:09:18.522Z,12.95
2023-05-25T05:11:46.437Z,10.43
2023-05-25T05:14:20.642Z,10.90
2023-05-25T05:16:54.809Z,11.65
2023-05-25T05:19:23.290Z,10.27
2023-05-25T05:21:50.533Z,12.00
2023-05-25T05:24:24.922Z,12.85
2023-05-25T05:26:58.989Z,15.43
2023-05-25T05:29:34.605Z,17.15
2023-05-25T05:32:01.845Z,11.93
2023-05-25T05:34:36.575Z,13.82
2023-05-25T05:37:03.676Z,14.60
2023-05-25T05:39:43.741Z,15.38
2023-05-25T05:42:13.419Z,14.52
2023-05-25T05:44:47.583Z,16.13
2023-05-25T05:47:21.685Z,12.65
2023-05-25T05:49:48.966Z,14.13
2023-05-25T05:52:22.601Z,14.93
2023-05-25T05:54:58.645Z,15.70
2023-05-25T05:57:28.646Z,14.45
2023-05-25T06:00:02.678Z,14.55
2023-05-25T06:02:33.421Z,15.20
2023-05-25T06:05:08.772Z,17.27
2023-05-25T06:07:39.535Z,21.05
2023-05-25T06:10:14.107Z,17.55
2023-05-25T06:12:41.370Z,15.00
2023-05-25T06:15:12.353Z,14.60
2023-05-25T06:17:46.619Z,15.25
2023-05-25T06:20:15.545Z,13.98
2023-05-25T06:22:52.742Z,12.88
2023-05-25T06:25:24.219Z,14.95
2023-05-25T06:27:57.717Z,18.05
2023-05-25T06:30:31.729Z,14.30
2023-05-25T06:32:59.356Z,12.68
2023-05-25T06:35:33.711Z,15.00
2023-05-25T06:38:10.057Z,17.30
2023-05-25T06:40:49.826Z,14.73
2023-05-25T06:43:20.764Z,15.80
2023-05-25T06:45:57.573Z,12.65
2023-05-25T06:48:27.555Z,12.93
2023-05-25T06:51:01.677Z,18.02
2023-05-25T06:53:37.864Z,15.18
2023-05-25T06:56:11.559Z,14.68
2023-05-25T06:58:39.064Z,18.85
2023-05-25T07:01:13.100Z,14.13
2023-05-25T07:03:40.770Z,15.15
2023-05-25T07:06:14.608Z,15.65
2023-05-25T07:08:41.923Z,16.20
2023-05-25T07:11:13.065Z,15.10
2023-05-25T07:13:47.672Z,14.25
2023-05-25T07:16:15.464Z,15.75
2023-05-25T07:18:51.694Z,14.73
2023-05-25T07:21:30.744Z,15.00
2023-05-25T07:24:11.269Z,14.13
2023-05-25T07:26:44.704Z,19.05
2023-05-25T07:29:19.679Z,15.43
2023-05-25T07:31:47.234Z,14.13
2023-05-25T07:34:22.718Z,16.35
2023-05-25T07:37:01.681Z,18.90
2023-05-25T07:39:36.179Z,12.63
2023-05-25T07:42:12.714Z,15.07
2023-05-25T07:44:46.783Z,13.23
2023-05-25T07:47:23.673Z,13.73
2023-05-25T07:49:53.527Z,13.10
2023-05-25T07:52:30.800Z,14.50
2023-05-25T07:54:58.131Z,11.15
2023-05-25T07:57:32.017Z,14.88
2023-05-25T07:59:59.231Z,10.82
2023-05-25T08:02:32.790Z,11.38
2023-05-25T08:05:04.594Z,10.68
2023-05-25T08:07:42.948Z,10.60
2023-05-25T08:10:12.346Z,10.63
2023-05-25T08:12:49.671Z,10.38
2023-05-25T08:15:21.542Z,6.47
2023-05-25T08:17:57.742Z,9.65
2023-05-25T08:20:28.544Z,5.90
2023-05-25T08:23:03.614Z,6.32
2023-05-25T08:25:30.661Z,8.02
2023-05-25T08:27:58.720Z,11.55
2023-05-25T08:30:32.659Z,12.38
2023-05-25T08:32:59.846Z,10.70
2023-05-25T08:35:35.727Z,10.70
2023-05-25T08:38:23.844Z,8.73
2023-05-25T08:41:21.661Z,8.65
2023-05-25T08:44:00.322Z,8.95
2023-05-25T08:46:40.755Z,7.28
2023-05-25T08:49:13.386Z,5.97
2023-05-25T08:52:01.535Z,9.13
2023-05-25T08:54:41.185Z,8.43
2023-05-25T08:57:22.656Z,6.05
2023-05-25T09:00:05.657Z,7.20
2023-05-25T09:02:41.407Z,6.68
2023-05-25T09:05:16.711Z,6.30
2023-05-25T09:07:51.676Z,5.40
2023-05-25T09:10:25.677Z,8.20
2023-05-25T09:13:06.609Z,9.82
2023-05-25T09:15:39.963Z,5.68
2023-05-25T09:18:13.685Z,7.30
2023-05-25T09:20:41.458Z,6.53
2023-05-25T09:23:16.632Z,7.95
2023-05-25T09:25:51.614Z,7.20
2023-05-25T09:30:58.755Z,6.80
2023-05-25T09:33:26.536Z,6.20
2023-05-25T09:36:00.705Z,7.45
2023-05-25T09:38:33.890Z,6.82
2023-05-25T09:41:13.745Z,9.10
2023-05-25T09:43:54.723Z,9.43
2023-05-25T09:46:28.964Z,7.85
2023-05-25T09:49:02.752Z,11.48
2023-05-25T09:51:33.432Z,5.78
2023-05-25T09:54:11.732Z,8.27
2023-05-25T09:56:44.669Z,6.53
2023-05-25T09:59:12.509Z,6.10
2023-05-25T10:01:46.051Z,9.98
2023-05-25T10:04:16.866Z,5.75
2023-05-25T10:06:52.765Z,7.38
2023-05-25T10:09:20.777Z,8.80
2023-05-25T10:11:57.685Z,8.25
2023-05-25T10:14:29.312Z,6.78
2023-05-25T10:17:05.709Z,8.48
2023-05-25T10:19:43.378Z,6.78
2023-05-25T10:22:31.659Z,8.45
2023-05-25T10:25:14.783Z,7.80
2023-05-25T10:27:52.224Z,7.45
2023-05-25T10:30:20.548Z,7.78
2023-05-25T10:32:54.713Z,7.35
2023-05-25T10:35:22.205Z,6.82
2023-05-25T10:37:58.749Z,6.38
2023-05-25T10:40:39.666Z,8.55
2023-05-25T10:43:07.250Z,6.60
2023-05-25T10:45:41.782Z,6.32
2023-05-25T10:48:08.820Z,7.22
2023-05-25T10:50:43.708Z,7.93
2023-05-25T10:53:14.348Z,7.85
2023-05-25T10:55:55.761Z,9.73
2023-05-25T10:58:24.038Z,9.48
2023-05-25T11:01:13.789Z,8.00
2023-05-25T11:04:05.964Z,8.07
2023-05-25T11:06:46.849Z,7.95
2023-05-25T11:09:27.245Z,8.88
2023-05-25T11:12:02.750Z,13.32
2023-05-25T11:14:40.302Z,6.55
2023-05-25T11:17:17.698Z,10.25
2023-05-25T11:20:06.790Z,11.30
2023-05-25T11:22:44.774Z,8.75
2023-05-25T11:25:37.114Z,9.50
2023-05-25T11:28:15.725Z,7.70
2023-05-25T11:30:43.272Z,8.15
2023-05-25T11:33:16.919Z,11.13
2023-05-25T11:35:45.846Z,7.80
2023-05-25T11:38:19.755Z,7.18
2023-05-25T11:40:53.479Z,10.00
2023-05-25T11:43:27.774Z,8.73
2023-05-25T11:45:58.009Z,12.02
2023-05-25T11:48:31.831Z,13.27
2023-05-25T11:51:12.764Z,12.98
2023-05-25T11:53:52.842Z,10.60
2023-05-25T11:56:35.440Z,13.05
2023-05-25T11:59:03.290Z,11.10
2023-05-25T12:01:38.830Z,8.65
2023-05-25T12:04:10.927Z,11.88
2023-05-25T12:06:44.811Z,9.18
2023-05-25T12:09:13.258Z,10.30
2023-05-25T12:11:46.831Z,11.25
2023-05-25T12:14:14.340Z,10.13
2023-05-25T12:16:48.788Z,12.77
2023-05-25T12:19:17.157Z,16.05
2023-05-25T12:21:52.053Z,14.90
2023-05-25T12:24:22.037Z,14.68
2023-05-25T12:26:56.857Z,15.45
2023-05-25T12:29:31.891Z,8.60
2023-05-25T12:32:13.030Z,9.43
2023-05-25T12:34:40.197Z,14.07
2023-05-25T12:37:25.876Z,16.33
2023-05-25T12:40:00.215Z,9.40
2023-05-25T12:42:33.924Z,11.07
2023-05-25T12:45:03.545Z,12.68
2023-05-25T12:47:38.794Z,11.75
2023-05-25T12:50:13.569Z,11.45
2023-05-25T12:52:52.839Z,13.10
2023-05-25T12:55:36.796Z,12.50
2023-05-25T12:58:06.591Z,13.07
2023-05-25T13:00:47.745Z,13.35
2023-05-25T13:03:18.106Z,10.93
2023-05-25T13:05:52.924Z,13.40
2023-05-25T13:08:19.933Z,12.20
2023-05-25T13:10:57.898Z,14.73
2023-05-25T13:13:31.849Z,12.25
2023-05-25T13:16:04.920Z,13.38
2023-05-25T13:18:32.434Z,12.00
2023-05-25T13:21:05.971Z,13.55
2023-05-25T13:23:32.964Z,10.65
2023-05-25T13:26:06.811Z,9.50
2023-05-25T13:28:39.891Z,10.32
2023-05-25T13:31:07.170Z,15.25
2023-05-25T13:33:40.933Z,15.38
2023-05-25T13:36:14.975Z,15.05
2023-05-25T13:38:48.844Z,9.57
2023-05-25T13:41:22.383Z,9.68
2023-05-25T13:43:55.809Z,12.48
2023-05-25T13:46:34.746Z,11.82
2023-05-25T13:49:08.826Z,10.25
2023-05-25T13:51:35.943Z,11.90
2023-05-25T13:54:09.868Z,12.55
2023-05-25T13:56:36.904Z,10.90
2023-05-25T13:59:03.707Z,9.85
2023-05-25T14:01:37.013Z,9.68
2023-05-25T14:04:04.933Z,8.68
2023-05-25T14:06:38.965Z,11.85
2023-05-25T14:09:06.043Z,13.00
2023-05-25T14:11:39.858Z,9.80
2023-05-25T14:14:19.489Z,8.77
2023-05-25T14:17:00.874Z,14.43
2023-05-25T14:19:28.277Z,11.98
2023-05-25T14:22:12.666Z,13.52
2023-05-25T14:24:41.721Z,11.45
2023-05-25T14:27:15.970Z,14.35
2023-05-25T14:29:42.893Z,10.52
2023-05-25T14:32:15.888Z,11.07
2023-05-25T14:34:49.906Z,13.27
2023-05-25T14:37:17.052Z,11.07
2023-05-25T14:39:50.863Z,9.05
2023-05-25T14:42:24.064Z,12.15
2023-05-25T14:44:57.850Z,9.90
2023-05-25T14:47:24.733Z,9.35
2023-05-25T14:49:57.859Z,12.70
2023-05-25T14:52:24.747Z,15.10
2023-05-25T14:54:57.916Z,11.50
2023-05-25T14:57:24.749Z,12.55
2023-05-25T14:59:57.947Z,12.27
2023-05-25T15:02:24.932Z,10.88
2023-05-25T15:05:00.944Z,10.82
2023-05-25T15:07:33.863Z,13.50
2023-05-25T15:10:00.896Z,13.10
2023-05-25T15:12:33.865Z,12.50
2023-05-25T15:15:06.903Z,10.15
2023-05-25T15:17:39.883Z,10.25
2023-05-25T15:20:07.281Z,11.50
2023-05-25T15:22:40.899Z,14.38
2023-05-25T15:25:08.080Z,8.68
2023-05-25T15:27:41.963Z,11.55
2023-05-25T15:30:09.697Z,12.05
2023-05-25T15:32:43.041Z,13.43
2023-05-25T15:35:10.437Z,13.00
2023-05-25T15:37:44.004Z,16.02
2023-05-25T15:40:17.902Z,13.60
2023-05-25T15:42:50.976Z,11.88
2023-05-25T15:45:18.772Z,15.30
2023-05-25T15:47:45.727Z,13.40
2023-05-25T15:50:18.988Z,12.23
2023-05-25T15:52:46.955Z,13.40
2023-05-25T15:55:21.356Z,11.23
2023-05-25T15:57:48.327Z,11.98
2023-05-25T16:00:22.058Z,16.88
2023-05-25T16:02:49.116Z,14.20
2023-05-25T16:05:23.076Z,13.48
2023-05-25T16:07:49.943Z,13.73
2023-05-25T16:10:23.984Z,11.73
2023-05-25T16:12:51.108Z,14.63
2023-05-25T16:15:24.992Z,13.55
2023-05-25T16:17:52.234Z,13.98
2023-05-25T16:20:26.045Z,10.05
2023-05-25T16:23:02.498Z,12.05
2023-05-25T16:25:29.862Z,12.15
2023-05-25T16:32:05.901Z,16.52
2023-05-25T17:01:14.074Z,14.18
2023-05-25T17:03:41.068Z,16.83
2023-05-25T17:06:17.991Z,19.60
2023-05-25T17:08:44.774Z,15.77
2023-05-25T17:11:17.938Z,14.80
2023-05-25T17:13:44.813Z,15.75
2023-05-25T17:16:18.131Z,14.00
2023-05-25T17:18:45.156Z,13.00
2023-05-25T17:21:22.073Z,14.20
2023-05-25T17:23:49.599Z,17.35
2023-05-25T17:26:22.954Z,19.30
2023-05-25T17:28:55.976Z,14.50
2023-05-25T17:31:23.189Z,15.18
2023-05-25T17:33:56.950Z,12.85
2023-05-25T17:36:30.011Z,18.38
2023-05-25T17:38:57.892Z,20.08
2023-05-25T17:41:31.151Z,18.23
2023-05-25T17:43:58.009Z,19.20
2023-05-25T17:46:32.094Z,17.55
2023-05-25T17:49:04.795Z,16.27
2023-05-25T17:51:38.055Z,19.90
2023-05-25T17:54:11.005Z,16.52
2023-05-25T17:56:37.844Z,17.38
2023-05-25T17:59:11.154Z,18.63
2023-05-25T18:01:44.670Z,11.77
2023-05-25T18:04:18.071Z,18.83
2023-05-25T18:06:45.293Z,15.63
2023-05-25T18:09:19.030Z,17.13
2023-05-25T18:11:46.680Z,21.83
2023-05-25T18:14:13.777Z,16.25
2023-05-25T18:16:53.244Z,15.20
2023-05-25T18:19:27.060Z,17.33
2023-05-25T18:21:53.878Z,15.27
2023-05-25T18:24:27.105Z,16.05
2023-05-25T18:27:06.054Z,17.23
2023-05-25T18:29:39.109Z,19.67
2023-05-25T18:32:15.028Z,13.43
2023-05-25T18:34:44.453Z,18.30
2023-05-25T18:37:42.135Z,17.67
2023-05-25T18:40:16.784Z,19.92
2023-05-25T18:42:50.076Z,15.18
2023-05-25T18:45:23.683Z,17.48
2023-05-25T18:47:58.243Z,16.38
2023-05-25T18:50:43.153Z,21.50
2023-05-25T18:53:21.361Z,13.80
2023-05-25T18:55:48.921Z,13.90
2023-05-25T18:58:24.771Z,19.40
2023-05-25T19:01:05.106Z,14.80
2023-05-25T19:03:58.559Z,12.45
2023-05-25T19:06:31.274Z,15.05
2023-05-25T19:09:05.152Z,15.02
2023-05-25T19:11:32.652Z,12.32
2023-05-25T19:14:07.052Z,17.67
2023-05-25T19:16:37.548Z,13.18
2023-05-25T19:19:14.120Z,17.55
2023-05-25T19:21:45.480Z,18.08
2023-05-25T19:24:12.763Z,18.13
2023-05-25T19:26:49.577Z,14.90
2023-05-25T19:29:24.165Z,16.55
2023-05-25T19:31:51.421Z,16.98
2023-05-25T19:34:25.025Z,17.00
2023-05-25T19:37:07.573Z,17.38
2023-05-25T19:39:38.230Z,16.15
2023-05-25T19:42:13.113Z,16.98
2023-05-25T19:44:41.420Z,13.93
2023-05-25T19:47:15.101Z,18.38
2023-05-25T19:49:43.130Z,17.23
2023-05-25T19:52:17.120Z,15.48
2023-05-25T19:54:45.592Z,15.95
2023-05-25T19:57:35.113Z,21.85
2023-05-25T20:00:26.947Z,16.48
2023-05-25T20:03:01.264Z,13.70
2023-05-25T20:05:28.815Z,15.73
2023-05-25T20:08:03.067Z,17.02
2023-05-25T20:10:39.107Z,15.02
2023-05-25T20:13:20.053Z,10.88
2023-05-25T20:15:48.779Z,14.82
2023-05-25T20:18:24.221Z,17.30
2023-05-25T20:20:54.519Z,16.38
2023-05-25T20:23:21.954Z,17.25
2023-05-25T20:25:56.136Z,15.10
2023-05-25T20:28:30.080Z,18.10
2023-05-25T20:31:04.241Z,15.15
2023-05-25T20:33:31.629Z,14.27
2023-05-25T20:36:08.307Z,15.73
2023-05-25T20:38:38.638Z,16.25
2023-05-25T20:41:14.810Z,15.23
2023-05-25T20:43:49.088Z,16.35
2023-05-25T20:46:23.133Z,20.27
2023-05-25T20:48:51.363Z,15.73
2023-05-25T20:51:26.265Z,14.80
2023-05-25T20:53:54.273Z,14.38
2023-05-25T20:56:31.048Z,14.18
2023-05-25T20:59:05.205Z,12.43
2023-05-25T21:01:52.228Z,16.08
2023-05-25T21:04:19.653Z,12.73
2023-05-25T21:06:46.986Z,13.57
2023-05-25T21:09:21.212Z,16.80
2023-05-25T21:11:48.949Z,13.38
2023-05-25T21:14:23.094Z,16.35
2023-05-25T21:16:50.386Z,17.10
2023-05-25T21:19:24.182Z,20.17
2023-05-25T21:21:52.088Z,22.17
2023-05-25T21:24:22.236Z,14.93
2023-05-25T21:26:56.065Z,16.05
2023-05-25T21:29:30.104Z,14.88
2023-05-25T21:32:02.544Z,19.45
2023-05-25T21:34:36.085Z,15.32
2023-05-25T21:37:05.606Z,13.35
2023-05-25T21:39:32.976Z,21.70
2023-05-25T21:42:15.968Z,14.88
2023-05-25T21:44:46.504Z,17.23
2023-05-25T21:47:24.244Z,16.88
2023-05-25T21:50:05.193Z,23.20
2023-05-25T21:52:35.296Z,18.90
2023-05-25T21:55:02.819Z,18.92
2023-05-25T21:57:37.450Z,19.83
2023-05-25T22:00:06.852Z,15.75
2023-05-25T22:02:50.263Z,21.48
2023-05-25T22:05:31.323Z,19.63
2023-05-25T22:08:05.433Z,18.77
2023-05-25T22:10:42.113Z,23.92
2023-05-25T22:13:18.720Z,16.30
2023-05-25T22:15:46.097Z,12.15
2023-05-25T22:18:25.652Z,14.05
2023-05-25T22:20:53.334Z,19.92
2023-05-25T22:23:27.237Z,20.20
2023-05-25T22:25:58.839Z,18.45
2023-05-25T22:28:26.235Z,19.98
2023-05-25T22:31:00.228Z,21.80
2023-05-25T22:33:40.256Z,17.05
2023-05-25T22:36:07.730Z,18.17
2023-05-25T22:38:44.256Z,19.52
2023-05-25T22:41:14.602Z,15.80
2023-05-25T22:43:48.256Z,17.35
2023-05-25T22:46:32.025Z,19.55
2023-05-25T22:49:01.646Z,19.70
2023-05-25T22:51:41.687Z,20.20
2023-05-25T22:54:10.364Z,21.17
2023-05-25T22:56:53.254Z,15.43
2023-05-25T22:59:24.713Z,16.52
2023-05-25T23:02:05.735Z,20.90
2023-05-25T23:04:35.802Z,20.02
2023-05-25T23:07:17.189Z,20.23
2023-05-25T23:09:51.107Z,15.13
2023-05-25T23:12:25.305Z,18.98
2023-05-25T23:14:53.756Z,21.38
2023-05-25T23:17:27.093Z,22.20
2023-05-25T23:22:43.289Z,22.23
2023-05-25T23:25:17.327Z,17.05
2023-05-25T23:27:47.696Z,18.02
2023-05-25T23:30:24.246Z,14.88
2023-05-25T23:32:52.134Z,16.38
2023-05-25T23:35:29.218Z,14.35
2023-05-25T23:37:57.881Z,10.82
2023-05-25T23:40:32.534Z,17.48
2023-05-25T23:43:02.687Z,20.52
2023-05-25T23:45:37.380Z,17.00
2023-05-25T23:48:07.558Z,19.95
2023-05-25T23:50:42.282Z,17.42
2023-05-25T23:53:16.210Z,16.60
2023-05-25T23:55:43.739Z,14.65
2023-05-25T23:58:19.372Z,15.77
